sensor_id;sensor_type;location;lat;lon;timestamp;pressure;altitude;pressure_sealevel;temperature;humidity
10897;BME280;5501;51.176;6.470;2023-11-22T00:03:32;102076.16;;;8.66;100.00
10897;BME280;5501;51.176;6.470;2023-11-22T00:08:34;102085.88;;;8.67;100.00
10897;BME280;5501;51.176;6.470;2023-11-22T00:13:36;102078.81;;;8.66;100.00
10897;BME280;5501;51.176;6.470;2023-11-22T00:18:38;102092.97;;;8.65;100.00
10897;BME280;5501;51.176;6.470;2023-11-22T00:23:40;102080.59;;;8.67;100.00
10897;BME280;5501;51.176;6.470;2023-11-22T00:28:41;102078.81;;;8.63;100.00
10897;BME280;5501;51.176;6.470;2023-11-22T00:33:43;102078.78;;;8.36;100.00
10897;BME280;5501;51.176;6.470;2023-11-22T00:38:44;102073.50;;;8.54;100.00
10897;BME280;5501;51.176;6.470;2023-11-22T00:43:47;102069.97;;;8.49;100.00
10897;BME280;5501;51.176;6.470;2023-11-22T00:48:49;102089.38;;;8.51;100.00
10897;BME280;5501;51.176;6.470;2023-11-22T00:53:51;102092.91;;;8.41;100.00
10897;BME280;5501;51.176;6.470;2023-11-22T00:58:53;102096.47;;;8.48;100.00
10897;BME280;5501;51.176;6.470;2023-11-22T01:03:55;102091.16;;;8.55;100.00
10897;BME280;5501;51.176;6.470;2023-11-22T01:08:57;102092.94;;;8.52;100.00
10897;BME280;5501;51.176;6.470;2023-11-22T01:13:58;102102.66;;;8.47;100.00
10897;BME280;5501;51.176;6.470;2023-11-22T01:19:00;102114.97;;;8.34;100.00
10897;BME280;5501;51.176;6.470;2023-11-22T01:24:02;102113.19;;;8.32;100.00
10897;BME280;5501;51.176;6.470;2023-11-22T01:29:04;102131.78;;;8.42;100.00
10897;BME280;5501;51.176;6.470;2023-11-22T01:34:06;102122.91;;;8.28;100.00
10897;BME280;5501;51.176;6.470;2023-11-22T01:39:11;102134.41;;;8.26;100.00
10897;BME280;5501;51.176;6.470;2023-11-22T01:44:16;102144.13;;;8.28;100.00
10897;BME280;5501;51.176;6.470;2023-11-22T01:49:19;102152.00;;;8.21;100.00
10897;BME280;5501;51.176;6.470;2023-11-22T01:54:22;102159.00;;;8.11;100.00
10897;BME280;5501;51.176;6.470;2023-11-22T01:59:25;102174.00;;;8.06;100.00
10897;BME280;5501;51.176;6.470;2023-11-22T02:04:29;102175.72;;;7.98;100.00
10897;BME280;5501;51.176;6.470;2023-11-22T02:09:31;102201.25;;;7.87;100.00
10897;BME280;5501;51.176;6.470;2023-11-22T02:14:32;102205.69;;;7.94;100.00
10897;BME280;5501;51.176;6.470;2023-11-22T02:19:34;102194.16;;;7.85;100.00
10897;BME280;5501;51.176;6.470;2023-11-22T02:24:36;102188.03;;;7.90;100.00
10897;BME280;5501;51.176;6.470;2023-11-22T02:29:37;102184.38;;;7.73;100.00
10897;BME280;5501;51.176;6.470;2023-11-22T02:34:39;102196.53;;;7.47;100.00
10897;BME280;5501;51.176;6.470;2023-11-22T02:39:51;102193.78;;;7.35;100.00
10897;BME280;5501;51.176;6.470;2023-11-22T02:44:57;102194.53;;;7.19;100.00
10897;BME280;5501;51.176;6.470;2023-11-22T02:49:58;102187.50;;;7.24;100.00
10897;BME280;5501;51.176;6.470;2023-11-22T02:55:00;102197.88;;;7.03;100.00
10897;BME280;5501;51.176;6.470;2023-11-22T03:00:03;102197.94;;;7.09;100.00
10897;BME280;5501;51.176;6.470;2023-11-22T03:05:09;102201.25;;;6.87;100.00
10897;BME280;5501;51.176;6.470;2023-11-22T03:10:11;102225.13;;;6.96;100.00
10897;BME280;5501;51.176;6.470;2023-11-22T03:15:14;102235.41;;;6.71;100.00
10897;BME280;5501;51.176;6.470;2023-11-22T03:20:15;102243.09;;;6.51;100.00
10897;BME280;5501;51.176;6.470;2023-11-22T03:25:18;102227.06;;;6.39;100.00
10897;BME280;5501;51.176;6.470;2023-11-22T03:30:20;102218.38;;;6.46;100.00
10897;BME280;5501;51.176;6.470;2023-11-22T03:35:23;102221.91;;;6.48;100.00
10897;BME280;5501;51.176;6.470;2023-11-22T03:40:25;102237.06;;;6.60;100.00
10897;BME280;5501;51.176;6.470;2023-11-22T03:45:26;102248.44;;;6.54;100.00
10897;BME280;5501;51.176;6.470;2023-11-22T03:50:28;102250.13;;;6.49;100.00
10897;BME280;5501;51.176;6.470;2023-11-22T03:55:29;102237.75;;;6.48;100.00
10897;BME280;5501;51.176;6.470;2023-11-22T04:00:31;102250.25;;;6.58;100.00
10897;BME280;5501;51.176;6.470;2023-11-22T04:05:33;102252.13;;;6.68;100.00
10897;BME280;5501;51.176;6.470;2023-11-22T04:10:35;102265.19;;;6.58;100.00
10897;BME280;5501;51.176;6.470;2023-11-22T04:15:37;102286.50;;;6.70;100.00
10897;BME280;5501;51.176;6.470;2023-11-22T04:20:38;102284.78;;;6.72;100.00
10897;BME280;5501;51.176;6.470;2023-11-22T04:25:41;102312.16;;;6.75;100.00
10897;BME280;5501;51.176;6.470;2023-11-22T04:30:43;102326.06;;;6.62;100.00
10897;BME280;5501;51.176;6.470;2023-11-22T04:35:45;102327.84;;;6.63;100.00
10897;BME280;5501;51.176;6.470;2023-11-22T04:40:47;102311.06;;;6.60;100.00
10897;BME280;5501;51.176;6.470;2023-11-22T04:45:49;102327.06;;;6.70;100.00
10897;BME280;5501;51.176;6.470;2023-11-22T04:50:51;102325.84;;;6.47;100.00
10897;BME280;5501;51.176;6.470;2023-11-22T04:55:52;102317.16;;;6.54;100.00
10897;BME280;5501;51.176;6.470;2023-11-22T05:00:54;102323.28;;;6.52;100.00
10897;BME280;5501;51.176;6.470;2023-11-22T05:05:56;102317.03;;;6.45;100.00
10897;BME280;5501;51.176;6.470;2023-11-22T05:10:57;102329.19;;;6.34;100.00
10897;BME280;5501;51.176;6.470;2023-11-22T05:15:59;102330.94;;;6.35;100.00
10897;BME280;5501;51.176;6.470;2023-11-22T05:21:02;102334.25;;;6.21;100.00
10897;BME280;5501;51.176;6.470;2023-11-22T05:26:06;102341.09;;;6.10;100.00
10897;BME280;5501;51.176;6.470;2023-11-22T05:31:08;102351.00;;;6.21;100.00
10897;BME280;5501;51.176;6.470;2023-11-22T05:36:10;102365.88;;;6.16;100.00
10897;BME280;5501;51.176;6.470;2023-11-22T05:41:13;102346.22;;;5.99;100.00
10897;BME280;5501;51.176;6.470;2023-11-22T05:46:14;102351.63;;;6.05;100.00
10897;BME280;5501;51.176;6.470;2023-11-22T05:51:18;102343.00;;;6.18;100.00
10897;BME280;5501;51.176;6.470;2023-11-22T05:56:19;102355.22;;;6.10;100.00
10897;BME280;5501;51.176;6.470;2023-11-22T06:01:23;102354.28;;;6.07;100.00
10897;BME280;5501;51.176;6.470;2023-11-22T06:06:25;102357.59;;;5.95;100.00
10897;BME280;5501;51.176;6.470;2023-11-22T06:11:26;102362.66;;;6.35;100.00
10897;BME280;5501;51.176;6.470;2023-11-22T06:16:28;102365.34;;;5.86;100.00
10897;BME280;5501;51.176;6.470;2023-11-22T06:21:30;102359.25;;;5.89;100.00
10897;BME280;5501;51.176;6.470;2023-11-22T06:26:31;102372.16;;;5.75;100.00
10897;BME280;5501;51.176;6.470;2023-11-22T06:31:34;102381.13;;;5.83;100.00
10897;BME280;5501;51.176;6.470;2023-11-22T06:36:35;102382.53;;;5.66;100.00
10897;BME280;5501;51.176;6.470;2023-11-22T06:41:37;102391.50;;;5.74;100.00
10897;BME280;5501;51.176;6.470;2023-11-22T06:46:39;102398.38;;;5.66;100.00
10897;BME280;5501;51.176;6.470;2023-11-22T06:51:40;102383.41;;;5.65;100.00
10897;BME280;5501;51.176;6.470;2023-11-22T06:56:42;102387.06;;;5.72;100.00
10897;BME280;5501;51.176;6.470;2023-11-22T07:01:44;102385.34;;;5.75;100.00
10897;BME280;5501;51.176;6.470;2023-11-22T07:06:46;102388.75;;;5.68;100.00
10897;BME280;5501;51.176;6.470;2023-11-22T07:11:48;102408.94;;;5.66;100.00
10897;BME280;5501;51.176;6.470;2023-11-22T07:16:51;102426.88;;;5.82;100.00
10897;BME280;5501;51.176;6.470;2023-11-22T07:21:55;102441.19;;;5.51;100.00
10897;BME280;5501;51.176;6.470;2023-11-22T07:26:56;102457.06;;;5.53;100.00
10897;BME280;5501;51.176;6.470;2023-11-22T07:31:58;102458.81;;;5.52;100.00
10897;BME280;5501;51.176;6.470;2023-11-22T07:37:00;102462.56;;;5.63;100.00
10897;BME280;5501;51.176;6.470;2023-11-22T07:42:02;102453.09;;;5.73;100.00
10897;BME280;5501;51.176;6.470;2023-11-22T07:47:04;102451.25;;;5.69;100.00
10897;BME280;5501;51.176;6.470;2023-11-22T07:52:10;102439.69;;;5.63;100.00
10897;BME280;5501;51.176;6.470;2023-11-22T07:57:15;102432.03;;;5.76;100.00
10897;BME280;5501;51.176;6.470;2023-11-22T08:02:17;102438.31;;;5.81;100.00
10897;BME280;5501;51.176;6.470;2023-11-22T08:07:20;102439.22;;;5.83;100.00
10897;BME280;5501;51.176;6.470;2023-11-22T08:12:24;102424.16;;;5.79;100.00
10897;BME280;5501;51.176;6.470;2023-11-22T08:17:25;102430.47;;;5.84;100.00
10897;BME280;5501;51.176;6.470;2023-11-22T08:22:29;102434.06;;;5.89;100.00
10897;BME280;5501;51.176;6.470;2023-11-22T08:27:31;102439.56;;;6.01;100.00
10897;BME280;5501;51.176;6.470;2023-11-22T08:32:32;102451.81;;;5.96;100.00
10897;BME280;5501;51.176;6.470;2023-11-22T08:37:34;102453.91;;;6.15;100.00
10897;BME280;5501;51.176;6.470;2023-11-22T08:42:39;102471.28;;;6.03;100.00
10897;BME280;5501;51.176;6.470;2023-11-22T08:47:42;102505.56;;;6.00;100.00
10897;BME280;5501;51.176;6.470;2023-11-22T08:52:44;102510.13;;;6.08;100.00
10897;BME280;5501;51.176;6.470;2023-11-22T08:57:47;102518.94;;;6.09;100.00
10897;BME280;5501;51.176;6.470;2023-11-22T09:02:49;102515.75;;;6.26;100.00
10897;BME280;5501;51.176;6.470;2023-11-22T09:07:50;102523.19;;;6.48;100.00
10897;BME280;5501;51.176;6.470;2023-11-22T09:12:52;102523.09;;;6.42;100.00
10897;BME280;5501;51.176;6.470;2023-11-22T09:17:54;102504.06;;;6.61;100.00
10897;BME280;5501;51.176;6.470;2023-11-22T09:22:56;102506.88;;;6.72;100.00
10897;BME280;5501;51.176;6.470;2023-11-22T09:28:01;102497.38;;;6.86;99.36
10897;BME280;5501;51.176;6.470;2023-11-22T09:33:05;102503.34;;;7.29;99.60
10897;BME280;5501;51.176;6.470;2023-11-22T09:38:09;102514.56;;;7.13;97.41
10897;BME280;5501;51.176;6.470;2023-11-22T09:43:15;102496.03;;;7.13;96.32
10897;BME280;5501;51.176;6.470;2023-11-22T09:48:21;102496.28;;;7.28;96.41
10897;BME280;5501;51.176;6.470;2023-11-22T09:53:52;102508.59;;;7.26;97.40
10897;BME280;5501;51.176;6.470;2023-11-22T09:59:00;102510.75;;;7.53;97.16
10897;BME280;5501;51.176;6.470;2023-11-22T10:04:03;102500.94;;;7.47;95.37
10897;BME280;5501;51.176;6.470;2023-11-22T10:09:07;102489.53;;;7.51;95.41
10897;BME280;5501;51.176;6.470;2023-11-22T10:14:10;102512.53;;;7.55;92.68
10897;BME280;5501;51.176;6.470;2023-11-22T10:19:12;102513.38;;;7.53;92.64
10897;BME280;5501;51.176;6.470;2023-11-22T10:24:20;102505.09;;;7.27;93.92
10897;BME280;5501;51.176;6.470;2023-11-22T10:29:25;102501.81;;;7.48;94.41
10897;BME280;5501;51.176;6.470;2023-11-22T10:34:27;102498.25;;;7.44;88.34
10897;BME280;5501;51.176;6.470;2023-11-22T10:39:29;102500.22;;;7.60;87.70
10897;BME280;5501;51.176;6.470;2023-11-22T10:44:30;102500.34;;;7.69;84.88
10897;BME280;5501;51.176;6.470;2023-11-22T10:49:34;102503.88;;;7.68;88.61
10897;BME280;5501;51.176;6.470;2023-11-22T10:54:37;102487.13;;;7.71;83.14
10897;BME280;5501;51.176;6.470;2023-11-22T10:59:43;102503.94;;;7.74;83.93
10897;BME280;5501;51.176;6.470;2023-11-22T11:05:02;102513.84;;;7.92;81.93
10897;BME280;5501;51.176;6.470;2023-11-22T11:10:13;102504.44;;;8.16;81.15
10897;BME280;5501;51.176;6.470;2023-11-22T11:15:25;102495.91;;;8.43;75.73
10897;BME280;5501;51.176;6.470;2023-11-22T11:20:32;102464.28;;;8.65;78.26
10897;BME280;5501;51.176;6.470;2023-11-22T11:25:34;102470.47;;;8.69;74.51
10897;BME280;5501;51.176;6.470;2023-11-22T11:30:40;102462.59;;;8.79;76.26
10897;BME280;5501;51.176;6.470;2023-11-22T11:35:47;102459.88;;;8.70;68.50
10897;BME280;5501;51.176;6.470;2023-11-22T11:40:49;102444.94;;;8.81;67.04
10897;BME280;5501;51.176;6.470;2023-11-22T11:45:55;102456.50;;;8.91;63.99
10897;BME280;5501;51.176;6.470;2023-11-22T11:51:01;102469.66;;;8.77;73.60
10897;BME280;5501;51.176;6.470;2023-11-22T11:56:03;102477.63;;;8.76;75.95
10897;BME280;5501;51.176;6.470;2023-11-22T12:01:05;102469.66;;;8.77;73.46
10897;BME280;5501;51.176;6.470;2023-11-22T12:06:08;102435.38;;;9.07;72.24
10897;BME280;5501;51.176;6.470;2023-11-22T12:11:09;102412.28;;;8.94;70.08
10897;BME280;5501;51.176;6.470;2023-11-22T12:16:16;102383.06;;;8.85;57.76
10897;BME280;5501;51.176;6.470;2023-11-22T12:21:19;102375.84;;;8.66;61.61
10897;BME280;5501;51.176;6.470;2023-11-22T12:26:21;102361.56;;;8.40;61.85
10897;BME280;5501;51.176;6.470;2023-11-22T12:31:23;102333.38;;;8.57;66.22
10897;BME280;5501;51.176;6.470;2023-11-22T12:36:26;102341.13;;;8.26;66.93
10897;BME280;5501;51.176;6.470;2023-11-22T12:41:28;102352.81;;;8.56;68.96
10897;BME280;5501;51.176;6.470;2023-11-22T12:46:47;102345.69;;;8.49;73.12
10897;BME280;5501;51.176;6.470;2023-11-22T12:51:52;102328.09;;;8.60;70.73
10897;BME280;5501;51.176;6.470;2023-11-22T12:56:54;102320.16;;;8.60;70.10
10897;BME280;5501;51.176;6.470;2023-11-22T13:02:01;102319.31;;;8.70;66.92
10897;BME280;5501;51.176;6.470;2023-11-22T13:07:04;102348.38;;;8.57;66.94
10897;BME280;5501;51.176;6.470;2023-11-22T13:12:06;102352.81;;;8.58;67.76
10897;BME280;5501;51.176;6.470;2023-11-22T13:17:08;102351.19;;;8.79;74.54
10897;BME280;5501;51.176;6.470;2023-11-22T13:22:12;102340.41;;;8.49;70.30
10897;BME280;5501;51.176;6.470;2023-11-22T13:27:16;102335.22;;;8.70;72.92
10897;BME280;5501;51.176;6.470;2023-11-22T13:32:18;102352.91;;;8.71;68.69
10897;BME280;5501;51.176;6.470;2023-11-22T13:37:23;102328.22;;;8.87;68.21
10897;BME280;5501;51.176;6.470;2023-11-22T13:42:25;102335.41;;;9.09;61.04
10897;BME280;5501;51.176;6.470;2023-11-22T13:47:26;102338.94;;;9.08;60.80
10897;BME280;5501;51.176;6.470;2023-11-22T13:52:28;102361.97;;;9.09;61.79
10897;BME280;5501;51.176;6.470;2023-11-22T13:57:30;102353.97;;;9.11;64.53
10897;BME280;5501;51.176;6.470;2023-11-22T14:02:32;102346.69;;;8.68;65.49
10897;BME280;5501;51.176;6.470;2023-11-22T14:07:36;102345.91;;;8.82;64.61
10897;BME280;5501;51.176;6.470;2023-11-22T14:12:37;102325.50;;;8.71;64.77
10897;BME280;5501;51.176;6.470;2023-11-22T14:17:39;102317.47;;;8.57;62.55
10897;BME280;5501;51.176;6.470;2023-11-22T14:22:42;102309.41;;;8.42;63.43
10897;BME280;5501;51.176;6.470;2023-11-22T14:27:46;102320.84;;;8.32;63.66
10897;BME280;5501;51.176;6.470;2023-11-22T14:32:49;102332.31;;;8.33;63.85
10897;BME280;5501;51.176;6.470;2023-11-22T14:37:52;102332.19;;;8.16;66.99
10897;BME280;5501;51.176;6.470;2023-11-22T14:42:54;102342.03;;;8.35;66.75
10897;BME280;5501;51.176;6.470;2023-11-22T14:47:56;102342.09;;;8.38;67.75
10897;BME280;5501;51.176;6.470;2023-11-22T14:52:58;102346.44;;;8.32;70.44
10897;BME280;5501;51.176;6.470;2023-11-22T14:58:00;102345.56;;;8.31;71.29
10897;BME280;5501;51.176;6.470;2023-11-22T15:03:03;102354.44;;;8.36;74.37
10897;BME280;5501;51.176;6.470;2023-11-22T15:08:05;102338.44;;;8.27;75.18
10897;BME280;5501;51.176;6.470;2023-11-22T15:13:06;102340.22;;;8.25;77.54
10897;BME280;5501;51.176;6.470;2023-11-22T15:18:08;102343.72;;;8.21;78.14
10897;BME280;5501;51.176;6.470;2023-11-22T15:23:10;102343.84;;;8.36;78.27
10897;BME280;5501;51.176;6.470;2023-11-22T15:28:13;102357.06;;;8.32;79.38
10897;BME280;5501;51.176;6.470;2023-11-22T15:33:24;102356.03;;;8.19;80.32
10897;BME280;5501;51.176;6.470;2023-11-22T15:38:26;102357.88;;;8.26;82.17
10897;BME280;5501;51.176;6.470;2023-11-22T15:43:28;102350.63;;;8.07;83.10
10897;BME280;5501;51.176;6.470;2023-11-22T15:48:30;102337.47;;;8.16;85.50
10897;BME280;5501;51.176;6.470;2023-11-22T15:53:34;102340.19;;;8.22;88.13
10897;BME280;5501;51.176;6.470;2023-11-22T15:58:36;102358.97;;;8.49;86.08
10897;BME280;5501;51.176;6.470;2023-11-22T16:03:38;102338.50;;;8.33;85.95
10897;BME280;5501;51.176;6.470;2023-11-22T16:08:42;102332.38;;;8.39;86.19
10897;BME280;5501;51.176;6.470;2023-11-22T16:13:43;102312.88;;;8.35;88.07
10897;BME280;5501;51.176;6.470;2023-11-22T16:18:46;102283.72;;;8.31;89.19
10897;BME280;5501;51.176;6.470;2023-11-22T16:23:48;102308.41;;;8.25;89.19
10897;BME280;5501;51.176;6.470;2023-11-22T16:28:49;102324.22;;;8.19;90.88
10897;BME280;5501;51.176;6.470;2023-11-22T16:33:51;102330.41;;;8.18;89.43
10897;BME280;5501;51.176;6.470;2023-11-22T16:38:53;102333.13;;;8.21;90.44
10897;BME280;5501;51.176;6.470;2023-11-22T16:43:56;102337.63;;;8.30;92.65
10897;BME280;5501;51.176;6.470;2023-11-22T16:48:57;102344.06;;;8.75;86.62
10897;BME280;5501;51.176;6.470;2023-11-22T16:53:59;102335.84;;;8.30;87.60
10897;BME280;5501;51.176;6.470;2023-11-22T16:59:01;102337.53;;;8.21;89.05
10897;BME280;5501;51.176;6.470;2023-11-22T17:04:03;102318.78;;;8.01;90.64
10897;BME280;5501;51.176;6.470;2023-11-22T17:09:05;102315.25;;;8.02;90.71
10897;BME280;5501;51.176;6.470;2023-11-22T17:14:07;102300.13;;;7.88;91.27
10897;BME280;5501;51.176;6.470;2023-11-22T17:19:09;102285.22;;;7.97;92.91
10897;BME280;5501;51.176;6.470;2023-11-22T17:24:11;102268.47;;;8.01;92.42
10897;BME280;5501;51.176;6.470;2023-11-22T17:29:12;102235.78;;;7.99;92.90
10897;BME280;5501;51.176;6.470;2023-11-22T17:34:14;102248.19;;;8.06;92.18
10897;BME280;5501;51.176;6.470;2023-11-22T17:39:16;102253.53;;;8.15;90.72
10897;BME280;5501;51.176;6.470;2023-11-22T17:44:18;102242.06;;;8.16;91.71
10897;BME280;5501;51.176;6.470;2023-11-22T17:49:20;102256.03;;;7.90;93.09
10897;BME280;5501;51.176;6.470;2023-11-22T17:54:23;102249.84;;;7.92;94.37
10897;BME280;5501;51.176;6.470;2023-11-22T17:59:25;102252.50;;;7.97;93.77
10897;BME280;5501;51.176;6.470;2023-11-22T18:04:26;102244.50;;;7.83;94.17
10897;BME280;5501;51.176;6.470;2023-11-22T18:09:28;102238.34;;;7.86;93.99
10897;BME280;5501;51.176;6.470;2023-11-22T18:14:34;102247.97;;;7.76;93.51
10897;BME280;5501;51.176;6.470;2023-11-22T18:19:36;102233.81;;;7.71;93.81
10897;BME280;5501;51.176;6.470;2023-11-22T18:24:38;102233.75;;;7.65;93.90
10897;BME280;5501;51.176;6.470;2023-11-22T18:29:40;102216.09;;;7.64;94.50
10897;BME280;5501;51.176;6.470;2023-11-22T18:34:41;102219.63;;;7.63;94.95
10897;BME280;5501;51.176;6.470;2023-11-22T18:39:43;102216.03;;;7.58;95.08
10897;BME280;5501;51.176;6.470;2023-11-22T18:44:45;102230.22;;;7.66;94.61
10897;BME280;5501;51.176;6.470;2023-11-22T18:49:49;102231.97;;;7.64;95.43
10897;BME280;5501;51.176;6.470;2023-11-22T18:54:51;102227.59;;;7.69;95.84
10897;BME280;5501;51.176;6.470;2023-11-22T18:59:55;102223.28;;;7.80;94.54
10897;BME280;5501;51.176;6.470;2023-11-22T19:04:57;102228.50;;;7.74;94.50
10897;BME280;5501;51.176;6.470;2023-11-22T19:09:59;102220.59;;;7.77;92.94
10897;BME280;5501;51.176;6.470;2023-11-22T19:15:02;102214.38;;;7.72;93.56
10897;BME280;5501;51.176;6.470;2023-11-22T19:20:04;102222.38;;;7.80;92.53
10897;BME280;5501;51.176;6.470;2023-11-22T19:25:11;102216.03;;;7.58;92.58
10897;BME280;5501;51.176;6.470;2023-11-22T19:30:13;102216.06;;;7.61;92.98
10897;BME280;5501;51.176;6.470;2023-11-22T19:35:15;102209.03;;;7.66;92.05
10897;BME280;5501;51.176;6.470;2023-11-22T19:40:17;102210.75;;;7.61;92.32
10897;BME280;5501;51.176;6.470;2023-11-22T19:45:19;102217.81;;;7.62;92.29
10897;BME280;5501;51.176;6.470;2023-11-22T19:50:21;102221.25;;;7.51;91.84
10897;BME280;5501;51.176;6.470;2023-11-22T19:55:24;102208.91;;;7.48;92.65
10897;BME280;5501;51.176;6.470;2023-11-22T20:00:26;102188.63;;;7.49;92.22
10897;BME280;5501;51.176;6.470;2023-11-22T20:05:27;102187.09;;;7.84;95.25
10897;BME280;5501;51.176;6.470;2023-11-22T20:10:29;102201.91;;;7.56;92.45
10897;BME280;5501;51.176;6.470;2023-11-22T20:15:31;102180.69;;;7.53;91.65
10897;BME280;5501;51.176;6.470;2023-11-22T20:20:33;102173.59;;;7.49;92.08
10897;BME280;5501;51.176;6.470;2023-11-22T20:25:34;102164.72;;;7.41;92.22
10897;BME280;5501;51.176;6.470;2023-11-22T20:30:36;102149.78;;;7.49;92.55
10897;BME280;5501;51.176;6.470;2023-11-22T20:35:38;102134.00;;;7.64;91.39
10897;BME280;5501;51.176;6.470;2023-11-22T20:40:44;102139.25;;;7.60;90.64
10897;BME280;5501;51.176;6.470;2023-11-22T20:45:46;102161.25;;;7.48;90.24
10897;BME280;5501;51.176;6.470;2023-11-22T20:50:48;102157.81;;;7.61;90.60
10897;BME280;5501;51.176;6.470;2023-11-22T20:55:51;102164.78;;;7.50;90.51
10897;BME280;5501;51.176;6.470;2023-11-22T21:00:52;102164.72;;;7.41;90.56
10897;BME280;5501;51.176;6.470;2023-11-22T21:05:54;102159.38;;;7.38;90.48
10897;BME280;5501;51.176;6.470;2023-11-22T21:10:56;102148.78;;;7.38;90.52
10897;BME280;5501;51.176;6.470;2023-11-22T21:15:57;102154.13;;;7.41;89.74
10897;BME280;5501;51.176;6.470;2023-11-22T21:20:59;102147.00;;;7.31;89.46
10897;BME280;5501;51.176;6.470;2023-11-22T21:26:01;102154.06;;;7.32;90.78
10897;BME280;5501;51.176;6.470;2023-11-22T21:31:03;102145.31;;;7.42;89.62
10897;BME280;5501;51.176;6.470;2023-11-22T21:36:10;102142.66;;;7.42;89.74
10897;BME280;5501;51.176;6.470;2023-11-22T21:41:12;102146.19;;;7.43;89.21
10897;BME280;5501;51.176;6.470;2023-11-22T21:46:15;102147.00;;;7.31;88.94
10897;BME280;5501;51.176;6.470;2023-11-22T21:51:18;102142.56;;;7.29;88.86
10897;BME280;5501;51.176;6.470;2023-11-22T21:56:19;102159.44;;;7.44;88.72
10897;BME280;5501;51.176;6.470;2023-11-22T22:01:21;102132.97;;;7.44;87.41
10897;BME280;5501;51.176;6.470;2023-11-22T22:06:22;102109.22;;;7.53;87.23
10897;BME280;5501;51.176;6.470;2023-11-22T22:11:24;102103.03;;;7.54;87.02
10897;BME280;5501;51.176;6.470;2023-11-22T22:16:26;102095.00;;;7.42;87.76
10897;BME280;5501;51.176;6.470;2023-11-22T22:21:27;102089.56;;;7.18;89.03
10897;BME280;5501;51.176;6.470;2023-11-22T22:26:29;102075.28;;;6.98;89.04
10897;BME280;5501;51.176;6.470;2023-11-22T22:31:31;102066.69;;;7.28;89.02
10897;BME280;5501;51.176;6.470;2023-11-22T22:36:33;102071.88;;;7.16;88.88
10897;BME280;5501;51.176;6.470;2023-11-22T22:41:35;102064.03;;;7.23;89.21
10897;BME280;5501;51.176;6.470;2023-11-22T22:46:39;102065.97;;;7.51;87.25
10897;BME280;5501;51.176;6.470;2023-11-22T22:51:42;102057.09;;;7.46;87.56
10897;BME280;5501;51.176;6.470;2023-11-22T22:56:44;102062.41;;;7.43;87.99
10897;BME280;5501;51.176;6.470;2023-11-22T23:01:47;102059.91;;;7.70;87.37
10897;BME280;5501;51.176;6.470;2023-11-22T23:06:49;102059.03;;;7.68;87.76
10897;BME280;5501;51.176;6.470;2023-11-22T23:11:52;102053.84;;;7.98;86.62
10897;BME280;5501;51.176;6.470;2023-11-22T23:16:54;102045.88;;;7.89;87.17
10897;BME280;5501;51.176;6.470;2023-11-22T23:21:56;102052.13;;;8.08;86.52
10897;BME280;5501;51.176;6.470;2023-11-22T23:26:58;102049.50;;;8.18;86.46
10897;BME280;5501;51.176;6.470;2023-11-22T23:31:59;102054.75;;;8.06;87.83
10897;BME280;5501;51.176;6.470;2023-11-22T23:37:01;102048.56;;;8.07;88.82
10897;BME280;5501;51.176;6.470;2023-11-22T23:42:04;102034.47;;;8.14;90.32
10897;BME280;5501;51.176;6.470;2023-11-22T23:47:11;102027.38;;;8.07;94.05
10897;BME280;5501;51.176;6.470;2023-11-22T23:52:12;102006.16;;;7.92;98.92
10897;BME280;5501;51.176;6.470;2023-11-22T23:57:14;102002.56;;;7.81;100.00
